HALF-HOURLY OBSERVATIONS INDEX

004

Pilbara - De Grey

KARRATHA AERO

Site: 004083
Alt: 5.3m
9km WNW of KARRATHA


  Time     Wind        Temp  DP   Baro     Rain since   Rain past  Vis(m), Cloud(base in m), Weather
  local        km/h                         9am  last   hr   10m    
Mon 08:00  WSW 32/ 35  29.0 23.4  1009.7    0.0   0.0   0.0   0.0   10000 
Mon 08:30  WSW 32/ 37  30.2 23.6  1009.8    0.0   0.0   0.0   0.0   10000 
Mon 09:00  WSW 33/ 39  31.3 23.4  1009.6    0.0   0.0   0.0   0.0   10000 
Mon 09:30  WSW 33/ 41  31.9 22.9  1009.5    0.0   0.0   0.0   0.0   10000 
Mon 10:00  WSW 33/ 41  33.0 22.1  1009.1    0.0   0.0   0.0   0.0   10000 
Mon 10:30  WSW 33/ 41  34.0 22.4  1008.5    0.0   0.0   0.0   0.0   10000 
Mon 11:00    W 33/ 41  34.2 24.5  1008.3    0.0   0.0   0.0   0.0   10000 
Mon 11:30    W 33/ 39  34.0 24.3  1008.2    0.0   0.0   0.0   0.0   10000 
Mon 12:00    W 33/ 41  33.7 24.3  1008.0    0.0   0.0   0.0   0.0   10000 
Mon 12:30    W 37/ 45  34.6 24.8  1007.6    0.0   0.0   0.0   0.0   10000 
Mon 13:00    W 41/ 48  34.2 24.7  1007.1    0.0   0.0   0.0   0.0   10000 
Mon 13:30    W 41/ 48  34.0 24.6  1006.9    0.0   0.0   0.0   0.0   10000 

LEGENDRE ISLAND

Site: 004095
Alt: 29.0m
41km N of KARRATHA


  Time     Wind        Temp  DP   Baro     Rain since   Rain past  Vis(m), Cloud(base in m), Weather
  local        km/h                         9am  last   hr   10m    
Mon 08:00  WSW 39/ 45  28.4 24.6  1009.5   ----  ----  ----  ----   ----- 
Mon 08:30  WSW 39/ 48  29.1 24.7  1009.4   ----  ----  ----  ----   ----- 
Mon 09:00  WSW 39/ 48  29.3 24.6  1009.5   ----  ----  ----  ----   ----- 
Mon 09:30   SW 35/ 43  30.3 24.2  1009.7   ----  ----  ----  ----   ----- 
Mon 10:00   SW 37/ 45  30.6 24.0  1009.3   ----  ----  ----  ----   ----- 
Mon 10:30  WSW 33/ 39  31.0 24.1  1009.5   ----  ----  ----  ----   ----- 
Mon 11:00  WSW 32/ 37  31.6 24.5  1009.5   ----  ----  ----  ----   ----- 
Mon 11:30  WSW 33/ 39  32.1 24.9  1009.2   ----  ----  ----  ----   ----- 
Mon 12:00  WSW 35/ 43  32.1 24.7  1008.9   ----  ----  ----  ----   ----- 
Mon 12:30    W 35/ 45  31.6 24.2  1008.4   ----  ----  ----  ----   ----- 
Mon 13:00    W 35/ 43  31.9 24.5  1008.3   ----  ----  ----  ----   ----- 
Mon 13:30    W 35/ 43  31.5 24.6  1008.3   ----   0.0   0.0  ----   ----- 

MANDORA

Site: 004019
Alt: 7.5m
243km ENE of PORT HEDLAND


  Time     Wind        Temp  DP   Baro     Rain since   Rain past  Vis(m), Cloud(base in m), Weather
  local        km/h                         9am  last   hr   10m    
Mon 08:00    W  9/ 13  30.2 25.9  1009.8    0.0   0.0   0.0   0.0   ----- 
Mon 08:30    W 17/ 28  31.2 25.8  1009.8    0.0   0.0   0.0   0.0   ----- 
Mon 09:00    W 20/ 32  32.4 26.0  1009.8    0.0   0.0   0.0   0.0   ----- 
Mon 09:30  WNW 19/ 28  33.4 25.4  1010.0    0.0   0.0   0.0   0.0   ----- 
Mon 10:00   NW 20/ 33  33.5 25.5  1009.8    0.0   0.0   0.0   0.0   ----- 
Mon 10:30   NW 20/ 32  33.5 25.5  1009.6    0.0   0.0   0.0   0.0   ----- 
Mon 11:00  WNW 24/ 33  33.5 26.0  1009.1    0.0   0.0   0.0   0.0   ----- 
Mon 11:30  WNW 20/ 28  33.7 26.2  1008.6    0.0   0.0   0.0   0.0   ----- 
Mon 12:00  WNW 24/ 33  34.2 26.4  1008.1    0.0   0.0   0.0   0.0   ----- 
Mon 12:30  WNW 26/ 37  33.4 25.9  1007.4    0.0   0.0   0.0   0.0   ----- 
Mon 13:00    W 24/ 33  34.9 24.8  1007.0    0.0   0.0   0.0   0.0   ----- 
Mon 13:30    W 26/ 35  33.5 25.2  1006.7    0.0   0.0   0.0   0.0   ----- 

MARBLE BAR

Site: 004106
Alt: 182.3m
153km SE of PORT HEDLAND


  Time     Wind        Temp  DP   Baro     Rain since   Rain past  Vis(m), Cloud(base in m), Weather
  local        km/h                         9am  last   hr   10m    
Mon 08:00  WSW  9/ 15  33.2 18.9  1009.7    0.0   0.0   0.0   0.0   ----- 
Mon 08:30   SW 11/ 15  34.5 18.1  1010.0    0.0   0.0   0.0   0.0   ----- 
Mon 09:00  SSW  9/ 15  35.1 17.8  1010.2    0.0   0.0   0.0   0.0   ----- 
Mon 09:30   SW  7/ 17  36.6 17.7  1010.1    0.0   0.0   0.0   0.0   ----- 
Mon 10:00    S 11/ 19  38.0 17.4  1009.8    0.0   0.0   0.0   0.0   ----- 
Mon 10:30    W  7/ 15  38.6 16.8  1009.6    0.0   0.0   0.0   0.0   ----- 
Mon 11:00  WSW  9/ 15  39.1 16.1  1009.4    0.0   0.0   0.0   0.0   ----- 
Mon 11:30  SSE  4/  7  39.8 16.1  1009.0    0.0   0.0   0.0   0.0   ----- 
Mon 12:00    W  7/ 15  39.8 15.4  1008.6    0.0   0.0   0.0   0.0   ----- 
Mon 12:30  WNW  7/ 13  40.4 15.2  1008.0    0.0   0.0   0.0   0.0   ----- 
Mon 13:00  NNW  9/ 17  42.0 15.1  1007.5    0.0   0.0   0.0   0.0   ----- 
Mon 13:30   NW 11/ 22  42.9 14.3  1006.9    0.0   0.0   0.0   0.0   ----- 

PORT HEDLAND AIRPORT

Site: 004032
Alt: 6.4m
8km SSE of PORT HEDLAND


  Time     Wind        Temp  DP   Baro     Rain since   Rain past  Vis(m), Cloud(base in m), Weather
  local        km/h                         9am  last   hr   10m    
Mon 08:00  WSW 24/ 32  30.3 23.2  1009.1    0.0   0.0   0.0   0.0   10000 
Mon 08:30    W 22/ 30  31.9 23.4  1009.1    0.0   0.0   0.0   0.0   10000 
Mon 09:00    W 20/ 26  32.8 22.9  1009.2    0.0   0.0   0.0   0.0   10000 
Mon 09:30    W 20/ 28  34.1 21.5  1009.3    0.0   0.0   0.0   0.0   10000 
Mon 10:00    W 20/ 30  35.5 20.6  1009.1    0.0   0.0   0.0   0.0   10000 
Mon 10:30    W 19/ 28  36.6 20.0  1008.9    0.0   0.0   0.0   0.0   10000 
Mon 11:00  NNW 28/ 35  34.9 25.7  1009.1    0.0   0.0   0.0   0.0   10000 
Mon 11:30  NNW 28/ 33  33.8 25.8  1008.9    0.0   0.0   0.0   0.0   10000 
Mon 12:00   NW 32/ 39  34.5 25.0  1008.7    0.0   0.0   0.0   0.0   10000 
Mon 12:30   NW 33/ 41  34.3 25.4  1008.5    0.0   0.0   0.0   0.0   10000 
Mon 13:00   NW 33/ 41  33.6 25.6  1008.2    0.0   0.0   0.0   0.0   10000 
Mon 13:30   NW 35/ 43  33.2 25.5  1007.8    0.0   0.0   0.0   0.0   10000 

ROEBOURNE AERO

Site: 004090
Alt: 10.7m
31km E of KARRATHA


  Time     Wind        Temp  DP   Baro     Rain since   Rain past  Vis(m), Cloud(base in m), Weather
  local        km/h                         9am  last   hr   10m    
Mon 08:00  WSW 32/ 39  29.2 22.7  1009.5    0.0   0.0   0.0   0.0   ----- 
Mon 08:30  WSW 28/ 37  30.8 23.2  1009.5    0.0   0.0   0.0   0.0   ----- 
Mon 09:00   SW 26/ 35  31.9 22.3  1009.7    0.0   0.0   0.0   0.0   ----- 
Mon 09:30  WSW 30/ 39  33.0 22.1  1009.3    0.0   0.0   0.0   0.0   ----- 
Mon 10:00   SW 28/ 43  34.8 21.8  1008.9    0.0   0.0   0.0   0.0   ----- 
Mon 10:30   SW 26/ 37  36.2 20.8  1008.7    0.0   0.0   0.0   0.0   ----- 
Mon 11:00  WSW 26/ 37  37.8 20.1  1008.5    0.0   0.0   0.0   0.0   ----- 
Mon 11:30  WSW 24/ 41  38.9 19.7  1008.1    0.0   0.0   0.0   0.0   ----- 
Mon 12:00  WSW 24/ 35  39.3 19.5  1007.7    0.0   0.0   0.0   0.0   ----- 
Mon 12:30  WSW 26/ 41  40.6 17.9  1007.3    0.0   0.0   0.0   0.0   ----- 
Mon 13:00   SW 19/ 26  42.0 19.1  1006.9    0.0   0.0   0.0   0.0   ----- 
Mon 13:30  WNW 26/ 39  41.5 23.4  1006.7    0.0   0.0   0.0   0.0   -----